Time;durP1;ratioP1;P1;durP2;ratioP2;P2;SDS_P1;SDS_P2;PMS_P1;PMS_P2;Temp;Humidity;BMP_temperature;BMP_pressure;BME280_temperature;BME280_humidity;BME280_pressure;Samples;Min_cycle;Max_cycle;Signal;HPM_P1;HPM_P2
2022/01/19 00:01:06;;;;;;;19.60;10.93;;;;;;;;;;4953937;28;20028;-71
2022/01/19 00:03:33;;;;;;;21.55;11.00;;;;;;;;;;4934664;29;20043;-71
2022/01/19 00:05:59;;;;;;;17.35;9.73;;;;;;;;;;4934701;29;20046;-71
2022/01/19 00:08:28;;;;;;;21.45;9.80;;;;;;;;;;4934956;29;20036;-71
2022/01/19 00:10:54;;;;;;;15.65;9.15;;;;;;;;;;4934758;29;20024;-71
2022/01/19 00:13:20;;;;;;;18.08;9.38;;;;;;;;;;4934549;29;20094;-71
2022/01/19 00:15:47;;;;;;;17.90;8.95;;;;;;;;;;4934326;29;20555;-71
2022/01/19 00:18:14;;;;;;;16.75;8.50;;;;;;;;;;4934603;29;20016;-70
2022/01/19 00:20:41;;;;;;;14.45;8.40;;;;;;;;;;4934328;29;20031;-71
2022/01/19 00:23:08;;;;;;;15.50;8.88;;;;;;;;;;4934477;29;20044;-71
2022/01/19 00:25:34;;;;;;;14.57;8.57;;;;;;;;;;4953395;28;20477;-71
2022/01/19 00:28:01;;;;;;;17.98;9.57;;;;;;;;;;4934194;29;20029;-71
2022/01/19 00:30:27;;;;;;;18.33;10.15;;;;;;;;;;4934367;29;20024;-71
2022/01/19 00:32:53;;;;;;;15.23;9.18;;;;;;;;;;4934461;29;20050;-71
2022/01/19 00:35:20;;;;;;;18.77;9.55;;;;;;;;;;4934778;29;20027;-71
2022/01/19 00:37:46;;;;;;;29.00;13.55;;;;;;;;;;4933618;29;20082;-71
2022/01/19 00:40:14;;;;;;;21.75;12.05;;;;;;;;;;4934234;29;20477;-71
2022/01/19 00:42:41;;;;;;;23.33;11.40;;;;;;;;;;4933985;29;20032;-70
2022/01/19 00:45:08;;;;;;;20.70;11.40;;;;;;;;;;4933902;29;20029;-71
2022/01/19 00:47:35;;;;;;;23.30;11.00;;;;;;;;;;4934724;29;20027;-71
2022/01/19 00:50:02;;;;;;;21.23;10.40;;;;;;;;;;4934516;29;20038;-71
2022/01/19 00:52:28;;;;;;;15.38;8.85;;;;;;;;;;4933575;29;20497;-72
2022/01/19 00:54:54;;;;;;;19.45;9.55;;;;;;;;;;4933979;29;20034;-71
2022/01/19 00:57:21;;;;;;;14.70;8.38;;;;;;;;;;4934247;29;20494;-71
2022/01/19 00:59:47;;;;;;;14.82;8.38;;;;;;;;;;4933843;29;20394;-71
2022/01/19 01:02:13;;;;;;;13.02;8.60;;;;;;;;;;4934606;29;20493;-71
2022/01/19 01:04:40;;;;;;;15.75;8.70;;;;;;;;;;4933666;29;20031;-71
2022/01/19 01:07:06;;;;;;;17.30;8.57;;;;;;;;;;4933310;29;20516;-71
2022/01/19 01:09:32;;;;;;;18.50;9.95;;;;;;;;;;4934212;29;20024;-71
2022/01/19 01:12:02;;;;;;;25.90;12.10;;;;;;;;;;4964258;28;20016;-71
2022/01/19 01:20:02;;;;;;;26.27;12.73;;;;;;;;;;4933938;29;20032;-71
2022/01/19 01:22:28;;;;;;;22.75;11.32;;;;;;;;;;4933270;29;20032;-71
2022/01/19 01:24:55;;;;;;;16.50;8.70;;;;;;;;;;4933765;28;20040;-71
2022/01/19 01:27:21;;;;;;;25.13;11.77;;;;;;;;;;4933839;29;20509;-71
2022/01/19 01:29:47;;;;;;;25.35;11.52;;;;;;;;;;4933674;29;20556;-71
2022/01/19 01:32:14;;;;;;;18.27;10.13;;;;;;;;;;4934715;29;20035;-70
2022/01/19 01:34:40;;;;;;;19.58;10.15;;;;;;;;;;4952572;28;20034;-71
2022/01/19 01:37:06;;;;;;;16.08;8.68;;;;;;;;;;4933225;29;20024;-70
2022/01/19 01:39:33;;;;;;;12.57;7.43;;;;;;;;;;4933637;29;20416;-71
2022/01/19 01:41:59;;;;;;;14.27;7.97;;;;;;;;;;4933790;29;20038;-71
2022/01/19 01:44:26;;;;;;;13.15;7.60;;;;;;;;;;4934107;29;20568;-71
2022/01/19 01:46:58;;;;;;;15.25;7.93;;;;;;;;;;4933572;29;20032;-70
2022/01/19 01:49:29;;;;;;;12.23;7.35;;;;;;;;;;4933343;29;20039;-71
2022/01/19 01:54:41;;;;;;;10.93;7.20;;;;;;;;;;4964115;28;20036;-71
2022/01/19 01:57:08;;;;;;;14.32;7.53;;;;;;;;;;4933993;29;20034;-71
2022/01/19 01:59:34;;;;;;;13.40;7.25;;;;;;;;;;4937282;29;20027;-71
2022/01/19 02:02:01;;;;;;;15.80;6.97;;;;;;;;;;4937310;29;20412;-71
2022/01/19 02:04:30;;;;;;;11.88;7.07;;;;;;;;;;4936651;29;20024;-71
2022/01/19 02:09:38;;;;;;;12.60;7.22;;;;;;;;;;4936845;29;20152;-71
2022/01/19 02:23:23;;;;;;;26.70;14.13;;;;;;;;;;4935060;29;20094;-71
2022/01/19 02:26:02;;;;;;;30.67;15.27;;;;;;;;;;4936363;29;20032;-71
2022/01/19 02:42:04;;;;;;;23.15;12.38;;;;;;;;;;4936285;29;20501;-71
2022/01/19 02:46:34;;;;;;;20.63;11.38;;;;;;;;;;4936735;29;20035;-70
2022/01/19 02:49:44;;;;;;;21.40;10.18;;;;;;;;;;4935598;29;20420;-71
2022/01/19 02:52:11;;;;;;;19.30;10.30;;;;;;;;;;4935757;29;20038;-71
2022/01/19 02:54:37;;;;;;;20.85;11.10;;;;;;;;;;4935862;29;20023;-70
2022/01/19 02:57:04;;;;;;;18.58;10.95;;;;;;;;;;4935929;29;20023;-70
2022/01/19 03:10:26;;;;;;;18.67;10.48;;;;;;;;;;4935596;29;20019;-70
2022/01/19 03:12:52;;;;;;;19.48;10.18;;;;;;;;;;4935877;29;20046;-71
2022/01/19 03:15:19;;;;;;;21.15;11.40;;;;;;;;;;4935624;29;20507;-70
2022/01/19 03:17:46;;;;;;;19.42;11.40;;;;;;;;;;4935475;29;20042;-71
2022/01/19 03:20:13;;;;;;;20.42;10.82;;;;;;;;;;4936160;29;20030;-71
2022/01/19 03:23:40;;;;;;;20.65;11.30;;;;;;;;;;4935326;29;20416;-70
2022/01/19 03:25:38;;;;;;;19.58;11.10;;;;;;;;;;4929675;29;20042;-71
2022/01/19 03:28:05;;;;;;;16.23;9.82;;;;;;;;;;4935486;29;20031;-70
2022/01/19 03:30:31;;;;;;;18.20;10.05;;;;;;;;;;4935174;29;20016;-71
2022/01/19 03:32:57;;;;;;;16.88;9.13;;;;;;;;;;4935236;29;20023;-71
2022/01/19 03:35:24;;;;;;;18.15;10.05;;;;;;;;;;4936318;29;20023;-70
2022/01/19 03:37:50;;;;;;;19.77;9.93;;;;;;;;;;4934955;29;20094;-71
2022/01/19 03:40:17;;;;;;;18.17;9.70;;;;;;;;;;4935045;29;20020;-71
2022/01/19 03:42:43;;;;;;;15.57;8.63;;;;;;;;;;4934738;29;20042;-71
2022/01/19 03:45:10;;;;;;;16.48;9.48;;;;;;;;;;4935035;29;20038;-71
2022/01/19 03:47:50;;;;;;;15.50;9.20;;;;;;;;;;4934915;29;20023;-71
2022/01/19 03:50:17;;;;;;;15.73;9.88;;;;;;;;;;4934382;29;20092;-71
2022/01/19 03:52:43;;;;;;;15.98;9.40;;;;;;;;;;4934678;29;20028;-70
2022/01/19 03:55:11;;;;;;;12.23;7.75;;;;;;;;;;4934655;29;20024;-71
2022/01/19 03:57:38;;;;;;;15.38;8.93;;;;;;;;;;4934812;29;20028;-71
2022/01/19 04:00:07;;;;;;;20.55;11.57;;;;;;;;;;4934447;29;20024;-71
2022/01/19 04:02:35;;;;;;;16.83;9.65;;;;;;;;;;4934927;29;20032;-71
2022/01/19 04:05:08;;;;;;;17.63;9.55;;;;;;;;;;4934721;29;20407;-71
2022/01/19 04:07:34;;;;;;;18.85;10.77;;;;;;;;;;4965299;28;20036;-70
2022/01/19 04:10:01;;;;;;;17.95;9.60;;;;;;;;;;4934477;29;20024;-71
2022/01/19 04:12:47;;;;;;;14.63;8.43;;;;;;;;;;4934430;28;20032;-71
2022/01/19 04:15:15;;;;;;;14.02;8.52;;;;;;;;;;4934078;29;20432;-71
2022/01/19 04:17:49;;;;;;;12.65;8.13;;;;;;;;;;4934621;29;20023;-71
2022/01/19 04:20:16;;;;;;;13.63;7.97;;;;;;;;;;4933115;29;20027;-71
2022/01/19 04:22:42;;;;;;;12.40;7.90;;;;;;;;;;4934134;29;20393;-71
2022/01/19 04:25:09;;;;;;;14.10;8.15;;;;;;;;;;4934561;29;20024;-71
2022/01/19 04:27:36;;;;;;;14.13;8.60;;;;;;;;;;4934436;29;20020;-71
2022/01/19 04:30:10;;;;;;;15.35;8.93;;;;;;;;;;4934049;29;20015;-71
2022/01/19 04:33:02;;;;;;;15.75;8.85;;;;;;;;;;4934374;29;20489;-71
2022/01/19 04:35:31;;;;;;;16.75;8.63;;;;;;;;;;4930948;29;20027;-71
2022/01/19 04:54:44;;;;;;;17.90;9.73;;;;;;;;;;4934000;29;20380;-71
2022/01/19 05:03:12;;;;;;;17.52;9.63;;;;;;;;;;4933782;29;20055;-71
2022/01/19 05:05:42;;;;;;;22.45;10.50;;;;;;;;;;4931585;29;20043;-71
2022/01/19 05:08:20;;;;;;;20.35;10.45;;;;;;;;;;4934438;29;20055;-71
2022/01/19 05:15:54;;;;;;;21.10;11.00;;;;;;;;;;4933692;29;20031;-71
2022/01/19 05:18:21;;;;;;;22.08;10.98;;;;;;;;;;4934119;29;20423;-71
2022/01/19 05:20:47;;;;;;;18.27;10.15;;;;;;;;;;4933935;29;20098;-71
2022/01/19 05:23:16;;;;;;;20.60;10.93;;;;;;;;;;4934406;29;20040;-71
2022/01/19 05:25:43;;;;;;;18.27;10.43;;;;;;;;;;4933582;28;20035;-71
2022/01/19 05:28:10;;;;;;;23.95;12.20;;;;;;;;;;4933552;29;20042;-71
2022/01/19 05:30:36;;;;;;;19.50;10.20;;;;;;;;;;4933640;29;20026;-71
2022/01/19 05:33:02;;;;;;;23.73;10.45;;;;;;;;;;4936746;29;20028;-71
2022/01/19 05:35:30;;;;;;;20.08;10.95;;;;;;;;;;4938147;29;20023;-71
2022/01/19 05:37:56;;;;;;;22.90;11.10;;;;;;;;;;4937501;29;20035;-71
2022/01/19 05:40:23;;;;;;;21.80;11.65;;;;;;;;;;4937189;29;20026;-71
2022/01/19 05:42:50;;;;;;;19.15;10.82;;;;;;;;;;4937063;29;20069;-71
2022/01/19 05:45:16;;;;;;;21.15;11.52;;;;;;;;;;4937204;29;20020;-71
2022/01/19 05:47:45;;;;;;;24.33;11.73;;;;;;;;;;4937129;29;20412;-71
2022/01/19 05:50:12;;;;;;;20.92;11.15;;;;;;;;;;4935739;29;20023;-71
2022/01/19 05:52:38;;;;;;;26.45;12.88;;;;;;;;;;4936944;28;20036;-71
2022/01/19 05:55:05;;;;;;;22.67;12.02;;;;;;;;;;4937029;29;20028;-71
2022/01/19 05:57:32;;;;;;;27.25;11.95;;;;;;;;;;4936780;29;20384;-71
2022/01/19 05:59:58;;;;;;;22.73;12.68;;;;;;;;;;4921866;29;20024;-71
2022/01/19 06:02:25;;;;;;;22.27;12.38;;;;;;;;;;4937376;29;20035;-71
2022/01/19 06:04:51;;;;;;;23.30;12.73;;;;;;;;;;4936852;28;20094;-71
2022/01/19 06:07:18;;;;;;;28.38;13.40;;;;;;;;;;4936774;29;20034;-71
2022/01/19 06:12:11;;;;;;;24.88;12.63;;;;;;;;;;4936388;29;20039;-71
2022/01/19 06:14:39;;;;;;;26.52;11.90;;;;;;;;;;4936571;29;20016;-71
2022/01/19 06:17:06;;;;;;;28.25;13.00;;;;;;;;;;4937189;29;20031;-71
2022/01/19 06:19:33;;;;;;;24.23;12.25;;;;;;;;;;4936542;29;20024;-71
2022/01/19 06:21:59;;;;;;;26.88;13.20;;;;;;;;;;4936328;29;20053;-71
2022/01/19 06:24:27;;;;;;;26.75;12.65;;;;;;;;;;4936527;29;20473;-71
2022/01/19 06:26:53;;;;;;;22.33;11.70;;;;;;;;;;4936274;29;20019;-71
2022/01/19 06:29:21;;;;;;;29.02;13.95;;;;;;;;;;4937015;29;20046;-71
2022/01/19 06:31:47;;;;;;;29.05;13.63;;;;;;;;;;4936349;29;20030;-71
2022/01/19 06:34:14;;;;;;;25.30;12.77;;;;;;;;;;4936223;29;20031;-71
2022/01/19 06:36:40;;;;;;;24.90;14.07;;;;;;;;;;4936598;29;20036;-71
2022/01/19 06:39:07;;;;;;;28.58;14.07;;;;;;;;;;4936415;29;20032;-71
2022/01/19 06:41:33;;;;;;;27.70;12.88;;;;;;;;;;4936341;29;20082;-70
2022/01/19 06:44:00;;;;;;;28.33;13.23;;;;;;;;;;4935948;29;20094;-71
2022/01/19 06:46:26;;;;;;;28.30;13.35;;;;;;;;;;4936032;29;20019;-70
2022/01/19 06:48:53;;;;;;;26.08;12.77;;;;;;;;;;4936308;29;20039;-71
2022/01/19 06:51:19;;;;;;;26.65;12.90;;;;;;;;;;4935944;29;20019;-71
2022/01/19 06:53:46;;;;;;;24.42;12.40;;;;;;;;;;4935956;29;20035;-70
2022/01/19 06:56:12;;;;;;;27.85;14.02;;;;;;;;;;4936270;29;20100;-70
2022/01/19 06:58:38;;;;;;;27.08;13.45;;;;;;;;;;4935757;29;20024;-71
2022/01/19 07:01:05;;;;;;;26.45;12.57;;;;;;;;;;4935713;29;20024;-71
2022/01/19 07:03:32;;;;;;;30.35;13.23;;;;;;;;;;4966434;28;20044;-71
2022/01/19 07:06:01;;;;;;;31.85;14.38;;;;;;;;;;4965926;28;20050;-71
2022/01/19 07:08:28;;;;;;;31.85;14.93;;;;;;;;;;4936066;29;20057;-71
2022/01/19 07:10:54;;;;;;;31.50;13.73;;;;;;;;;;4935644;29;20046;-71
2022/01/19 07:13:21;;;;;;;31.90;15.55;;;;;;;;;;4932765;29;20024;-70
2022/01/19 07:15:48;;;;;;;31.90;14.30;;;;;;;;;;4933871;29;20037;-71
2022/01/19 07:18:14;;;;;;;27.05;14.15;;;;;;;;;;4935165;29;20046;-71
2022/01/19 07:20:41;;;;;;;54.55;19.75;;;;;;;;;;4935384;29;20045;-71
2022/01/19 07:23:07;;;;;;;42.75;17.83;;;;;;;;;;4935040;29;20040;-71
2022/01/19 07:25:33;;;;;;;76.88;24.63;;;;;;;;;;4932757;29;20027;-70
2022/01/19 07:28:00;;;;;;;56.05;22.33;;;;;;;;;;4934723;28;20483;-71
2022/01/19 07:30:26;;;;;;;39.50;16.38;;;;;;;;;;4934615;29;20024;-71
2022/01/19 07:32:52;;;;;;;37.05;16.60;;;;;;;;;;4934923;29;20032;-70
2022/01/19 07:35:19;;;;;;;33.10;14.02;;;;;;;;;;4935133;29;20055;-70
2022/01/19 07:37:46;;;;;;;45.85;17.15;;;;;;;;;;4933964;29;20075;-70
2022/01/19 07:40:12;;;;;;;47.03;19.52;;;;;;;;;;4933899;29;20016;-71
2022/01/19 07:42:39;;;;;;;109.03;34.13;;;;;;;;;;4934001;29;20028;-71
2022/01/19 07:45:06;;;;;;;39.97;19.10;;;;;;;;;;4933521;29;20950;-70
2022/01/19 07:47:32;;;;;;;50.30;20.02;;;;;;;;;;4933721;29;20028;-70
2022/01/19 07:50:00;;;;;;;32.10;14.35;;;;;;;;;;4934468;29;20074;-70
2022/01/19 07:52:26;;;;;;;30.85;14.57;;;;;;;;;;4934060;29;20082;-71
2022/01/19 07:54:53;;;;;;;28.00;13.98;;;;;;;;;;4932885;29;20057;-71
2022/01/19 07:57:20;;;;;;;39.53;16.30;;;;;;;;;;4934204;29;20102;-71
2022/01/19 07:59:46;;;;;;;37.72;16.33;;;;;;;;;;4933381;29;20034;-71
2022/01/19 08:02:13;;;;;;;34.83;17.67;;;;;;;;;;4936353;29;20047;-70
2022/01/19 08:04:39;;;;;;;30.67;15.07;;;;;;;;;;4934006;29;20074;-71
2022/01/19 08:07:06;;;;;;;62.17;26.98;;;;;;;;;;4932682;29;20052;-71
2022/01/19 08:09:34;;;;;;;30.27;14.65;;;;;;;;;;4933535;29;20396;-70
2022/01/19 08:12:00;;;;;;;58.05;24.60;;;;;;;;;;4932182;29;20036;-70
2022/01/19 08:14:27;;;;;;;39.88;17.50;;;;;;;;;;4932948;29;20027;-70
2022/01/19 08:16:57;;;;;;;33.47;16.20;;;;;;;;;;4932806;29;20031;-71
2022/01/19 08:19:25;;;;;;;32.65;15.13;;;;;;;;;;4931479;29;20051;-71
2022/01/19 08:21:52;;;;;;;34.40;15.30;;;;;;;;;;4932640;29;20027;-71
2022/01/19 08:24:18;;;;;;;26.40;13.57;;;;;;;;;;4932006;29;20039;-71
2022/01/19 08:26:44;;;;;;;26.33;13.43;;;;;;;;;;4932667;29;20016;-71
2022/01/19 08:29:11;;;;;;;27.17;13.20;;;;;;;;;;4933197;29;20031;-71
2022/01/19 08:31:37;;;;;;;29.58;15.02;;;;;;;;;;4932521;29;20022;-71
2022/01/19 08:34:04;;;;;;;35.55;16.08;;;;;;;;;;4932952;29;20031;-71
2022/01/19 08:36:31;;;;;;;28.27;13.90;;;;;;;;;;4932165;29;20054;-71
2022/01/19 08:38:57;;;;;;;29.35;15.25;;;;;;;;;;4932731;29;20032;-71
2022/01/19 08:41:24;;;;;;;29.42;15.00;;;;;;;;;;4933024;29;20084;-71
2022/01/19 08:43:50;;;;;;;28.80;14.82;;;;;;;;;;4931981;29;20038;-71
2022/01/19 08:46:16;;;;;;;28.98;14.73;;;;;;;;;;4932631;29;20504;-70
2022/01/19 08:48:43;;;;;;;32.20;17.50;;;;;;;;;;4932621;29;20439;-71
2022/01/19 08:51:09;;;;;;;33.20;17.95;;;;;;;;;;4932614;29;20037;-71
2022/01/19 08:53:36;;;;;;;35.80;18.20;;;;;;;;;;4932856;29;20034;-70
2022/01/19 08:56:02;;;;;;;32.13;16.65;;;;;;;;;;4947742;29;20039;-70
2022/01/19 08:58:28;;;;;;;31.90;17.15;;;;;;;;;;4932823;29;20024;-71
2022/01/19 09:00:55;;;;;;;34.53;17.55;;;;;;;;;;4932673;29;20062;-71
2022/01/19 09:03:21;;;;;;;37.40;17.77;;;;;;;;;;4959656;28;20052;-71
2022/01/19 09:05:48;;;;;;;32.53;16.98;;;;;;;;;;4933355;29;20059;-71
2022/01/19 09:08:14;;;;;;;32.90;16.00;;;;;;;;;;4935903;29;20036;-71
2022/01/19 09:10:41;;;;;;;29.50;15.40;;;;;;;;;;4936308;29;20039;-71
2022/01/19 09:13:09;;;;;;;28.25;14.65;;;;;;;;;;4935992;29;20028;-71
2022/01/19 09:15:35;;;;;;;24.65;13.70;;;;;;;;;;4936137;29;20028;-71
2022/01/19 09:18:02;;;;;;;25.95;14.15;;;;;;;;;;4935972;29;20028;-71
2022/01/19 09:20:28;;;;;;;26.50;14.30;;;;;;;;;;4936029;29;20028;-71
2022/01/19 09:22:55;;;;;;;29.70;14.88;;;;;;;;;;4935651;29;20043;-71
2022/01/19 09:25:21;;;;;;;28.42;14.23;;;;;;;;;;4935326;29;20024;-71
2022/01/19 09:27:47;;;;;;;28.50;15.57;;;;;;;;;;4935283;29;20020;-71
2022/01/19 09:30:21;;;;;;;32.50;14.82;;;;;;;;;;4935442;29;20400;-71
2022/01/19 09:32:55;;;;;;;29.25;15.18;;;;;;;;;;4934077;29;20019;-71
2022/01/19 09:35:25;;;;;;;29.42;15.60;;;;;;;;;;4935948;29;20024;-70
2022/01/19 09:37:51;;;;;;;28.40;15.93;;;;;;;;;;4935251;29;20028;-70
2022/01/19 09:40:18;;;;;;;31.70;16.65;;;;;;;;;;4936099;29;20027;-70
2022/01/19 09:42:48;;;;;;;31.30;16.33;;;;;;;;;;4935675;29;20054;-71
2022/01/19 09:45:15;;;;;;;32.08;16.60;;;;;;;;;;4935301;29;20026;-71
2022/01/19 09:47:41;;;;;;;25.67;15.02;;;;;;;;;;4934474;29;20504;-71
2022/01/19 09:50:08;;;;;;;32.72;16.35;;;;;;;;;;4934370;29;20552;-72
2022/01/19 09:52:38;;;;;;;27.20;15.15;;;;;;;;;;4935032;29;20079;-71
2022/01/19 09:55:05;;;;;;;30.40;16.60;;;;;;;;;;4935474;29;20028;-71
2022/01/19 09:57:33;;;;;;;27.20;15.52;;;;;;;;;;4934814;29;20496;-71
2022/01/19 10:00:00;;;;;;;27.75;15.68;;;;;;;;;;4935145;29;20030;-72
2022/01/19 10:02:26;;;;;;;22.50;13.55;;;;;;;;;;4933898;29;20045;-75
2022/01/19 10:04:52;;;;;;;21.75;13.00;;;;;;;;;;4953898;28;20488;-80
2022/01/19 10:07:24;;;;;;;23.05;13.77;;;;;;;;;;4935302;29;20036;-75
2022/01/19 10:09:53;;;;;;;22.95;14.07;;;;;;;;;;4934883;29;20042;-71
2022/01/19 10:17:56;;;;;;;20.88;12.55;;;;;;;;;;4933943;29;20039;-77
2022/01/19 10:20:23;;;;;;;17.45;11.48;;;;;;;;;;4936095;29;20016;-76
2022/01/19 10:22:50;;;;;;;21.90;13.00;;;;;;;;;;4959217;28;20036;-77
2022/01/19 10:25:17;;;;;;;18.20;11.52;;;;;;;;;;4965358;28;20509;-77
2022/01/19 10:27:46;;;;;;;20.38;12.48;;;;;;;;;;4934578;29;20015;-76
2022/01/19 10:30:14;;;;;;;18.00;11.70;;;;;;;;;;4935348;29;20034;-76
2022/01/19 10:32:42;;;;;;;18.88;12.25;;;;;;;;;;4934719;29;20047;-76
2022/01/19 10:35:20;;;;;;;19.25;12.10;;;;;;;;;;4934487;29;20570;-76
2022/01/19 10:37:48;;;;;;;19.73;12.27;;;;;;;;;;4934368;29;20039;-77
2022/01/19 10:40:15;;;;;;;22.35;12.90;;;;;;;;;;4965134;28;20039;-76
2022/01/19 10:42:42;;;;;;;20.98;12.82;;;;;;;;;;4934261;29;20039;-77
2022/01/19 10:45:09;;;;;;;19.88;11.80;;;;;;;;;;4934279;29;20028;-74
2022/01/19 10:47:38;;;;;;;19.58;12.23;;;;;;;;;;4934491;29;20082;-74
2022/01/19 10:50:06;;;;;;;21.52;12.52;;;;;;;;;;4934819;29;20392;-74
2022/01/19 10:52:37;;;;;;;20.70;12.50;;;;;;;;;;4934251;29;20024;-74
2022/01/19 10:55:05;;;;;;;17.42;11.10;;;;;;;;;;4934052;29;20019;-73
2022/01/19 10:57:32;;;;;;;16.58;11.35;;;;;;;;;;4933998;29;20098;-72
2022/01/19 11:00:12;;;;;;;19.85;12.75;;;;;;;;;;4934178;29;20042;-72
2022/01/19 11:02:39;;;;;;;20.00;11.98;;;;;;;;;;4933748;29;20441;-72
2022/01/19 11:05:05;;;;;;;18.13;12.18;;;;;;;;;;4932797;29;20035;-72
2022/01/19 11:07:32;;;;;;;18.73;12.13;;;;;;;;;;4933940;29;20051;-71
2022/01/19 11:10:09;;;;;;;16.38;11.13;;;;;;;;;;4934077;29;20034;-72
2022/01/19 11:12:45;;;;;;;20.23;12.95;;;;;;;;;;4934127;29;20046;-72
2022/01/19 11:15:12;;;;;;;20.75;13.05;;;;;;;;;;4933807;29;20412;-72
2022/01/19 11:17:38;;;;;;;20.40;13.15;;;;;;;;;;4934227;29;20027;-72
2022/01/19 11:20:07;;;;;;;22.38;12.93;;;;;;;;;;4934319;29;20053;-72
2022/01/19 11:22:36;;;;;;;24.23;13.15;;;;;;;;;;4933810;29;20054;-72
2022/01/19 11:25:14;;;;;;;21.48;12.48;;;;;;;;;;4964342;28;20044;-73
2022/01/19 11:27:45;;;;;;;18.88;11.88;;;;;;;;;;4948532;29;20039;-74
2022/01/19 11:30:17;;;;;;;20.27;11.25;;;;;;;;;;4933501;29;20063;-73
2022/01/19 11:32:45;;;;;;;19.75;12.60;;;;;;;;;;4933712;29;20036;-73
2022/01/19 11:35:30;;;;;;;20.95;12.32;;;;;;;;;;4934497;29;20027;-73
2022/01/19 11:37:57;;;;;;;20.25;11.95;;;;;;;;;;4933669;29;20024;-74
2022/01/19 11:40:33;;;;;;;22.08;12.38;;;;;;;;;;4932013;29;20051;-73
2022/01/19 11:43:19;;;;;;;21.67;13.43;;;;;;;;;;4932287;28;20038;-73
2022/01/19 11:45:46;;;;;;;19.30;12.02;;;;;;;;;;4963742;28;20035;-73
2022/01/19 11:48:12;;;;;;;21.10;11.80;;;;;;;;;;4933105;29;20020;-73
2022/01/19 11:50:39;;;;;;;21.33;11.13;;;;;;;;;;4933133;29;20027;-73
2022/01/19 11:53:09;;;;;;;18.75;10.57;;;;;;;;;;4932849;29;20032;-73
2022/01/19 11:55:36;;;;;;;17.38;9.90;;;;;;;;;;4932542;29;20020;-73
2022/01/19 11:58:24;;;;;;;17.60;10.85;;;;;;;;;;4932417;29;20518;-73
2022/01/19 12:00:51;;;;;;;19.05;11.23;;;;;;;;;;4933380;29;20165;-74
2022/01/19 12:03:22;;;;;;;21.08;10.93;;;;;;;;;;4933021;29;20035;-74
2022/01/19 12:05:50;;;;;;;;;;;;;;;;;;4933558;29;20043;-73
2022/01/19 12:08:25;;;;;;;15.23;10.18;;;;;;;;;;4933957;29;20391;-74
2022/01/19 12:10:56;;;;;;;17.92;10.98;;;;;;;;;;4933826;29;20043;-73
2022/01/19 12:13:29;;;;;;;14.63;9.60;;;;;;;;;;4933262;29;20019;-74
2022/01/19 12:16:01;;;;;;;16.00;10.23;;;;;;;;;;4931671;29;20036;-73
2022/01/19 12:18:38;;;;;;;14.10;9.48;;;;;;;;;;4933508;29;20444;-74
2022/01/19 12:21:05;;;;;;;13.85;9.48;;;;;;;;;;4933507;29;20032;-74
2022/01/19 12:23:34;;;;;;;14.23;9.38;;;;;;;;;;4933871;29;20118;-74
2022/01/19 12:26:00;;;;;;;15.35;9.98;;;;;;;;;;4964140;28;20044;-74
2022/01/19 12:28:42;;;;;;;14.82;9.85;;;;;;;;;;4933229;29;20035;-74
2022/01/19 12:31:27;;;;;;;14.00;9.32;;;;;;;;;;4933188;29;20540;-74
2022/01/19 12:34:03;;;;;;;12.48;9.13;;;;;;;;;;4963916;28;20386;-74
2022/01/19 12:36:47;;;;;;;16.05;9.07;;;;;;;;;;4933247;29;20028;-74
2022/01/19 12:39:26;;;;;;;13.10;8.57;;;;;;;;;;4933398;29;20027;-74
2022/01/19 12:41:55;;;;;;;12.23;8.35;;;;;;;;;;4932587;29;20075;-74
2022/01/19 12:44:36;;;;;;;13.52;9.25;;;;;;;;;;4933622;29;20378;-74
2022/01/19 12:47:22;;;;;;;13.98;8.55;;;;;;;;;;4933493;29;20042;-74
2022/01/19 12:49:50;;;;;;;12.93;8.38;;;;;;;;;;4933287;28;20501;-74
2022/01/19 12:52:17;;;;;;;16.60;9.75;;;;;;;;;;4932985;29;20086;-73
2022/01/19 12:54:43;;;;;;;12.38;8.80;;;;;;;;;;4933161;29;20016;-72
2022/01/19 12:57:15;;;;;;;11.93;7.97;;;;;;;;;;4932738;29;20082;-73
2022/01/19 12:59:42;;;;;;;13.75;8.15;;;;;;;;;;4961217;28;20031;-73
2022/01/19 13:02:09;;;;;;;14.30;8.05;;;;;;;;;;4933439;29;20388;-74
2022/01/19 13:04:36;;;;;;;13.07;8.13;;;;;;;;;;4933107;29;20028;-73
2022/01/19 13:07:16;;;;;;;11.35;7.40;;;;;;;;;;4932866;29;20047;-74
2022/01/19 13:13:09;;;;;;;12.43;7.22;;;;;;;;;;4930113;29;20601;-73
2022/01/19 13:15:47;;;;;;;9.65;5.93;;;;;;;;;;4929742;29;20054;-74
2022/01/19 13:18:18;;;;;;;9.18;6.05;;;;;;;;;;4930490;29;20019;-74
2022/01/19 13:20:51;;;;;;;10.00;6.47;;;;;;;;;;4930505;29;20525;-74
2022/01/19 13:23:17;;;;;;;9.85;6.47;;;;;;;;;;4931100;29;20521;-74
2022/01/19 13:25:43;;;;;;;10.40;5.95;;;;;;;;;;4930252;29;20031;-74
2022/01/19 13:28:10;;;;;;;10.25;5.88;;;;;;;;;;4914432;29;20198;-74
2022/01/19 13:30:37;;;;;;;10.40;6.35;;;;;;;;;;4930757;29;20032;-73
2022/01/19 13:33:13;;;;;;;11.32;6.20;;;;;;;;;;4930181;29;20044;-74
2022/01/19 13:35:40;;;;;;;7.20;5.50;;;;;;;;;;4930588;29;20489;-74
2022/01/19 13:38:10;;;;;;;6.28;4.38;;;;;;;;;;4930251;29;20044;-74
2022/01/19 13:40:37;;;;;;;6.43;5.07;;;;;;;;;;4930336;29;20039;-74
2022/01/19 13:43:16;;;;;;;7.82;5.15;;;;;;;;;;4930189;29;20043;-73
2022/01/19 13:50:41;;;;;;;10.52;6.55;;;;;;;;;;4932978;29;20024;-74
2022/01/19 13:53:07;;;;;;;9.18;6.38;;;;;;;;;;4933902;29;20032;-74
2022/01/19 13:55:34;;;;;;;7.15;5.25;;;;;;;;;;4935719;29;20485;-74
2022/01/19 13:58:07;;;;;;;7.85;5.82;;;;;;;;;;4936307;29;20024;-74
2022/01/19 14:00:33;;;;;;;12.35;7.47;;;;;;;;;;4936111;29;20038;-74
2022/01/19 14:03:03;;;;;;;10.27;6.50;;;;;;;;;;4936135;29;20035;-74
2022/01/19 14:05:43;;;;;;;8.98;6.07;;;;;;;;;;4932446;29;20048;-74
2022/01/19 14:08:10;;;;;;;13.90;6.88;;;;;;;;;;4936677;29;20536;-74
2022/01/19 14:10:42;;;;;;;9.55;6.97;;;;;;;;;;4935341;29;20032;-74
2022/01/19 14:13:27;;;;;;;8.57;5.90;;;;;;;;;;4935738;29;20049;-74
2022/01/19 14:15:55;;;;;;;8.95;5.82;;;;;;;;;;4935638;29;20058;-74
2022/01/19 14:18:22;;;;;;;11.85;7.05;;;;;;;;;;4936000;29;20409;-74
2022/01/19 14:21:21;;;;;;;9.82;6.68;;;;;;;;;;4935923;29;20035;-74
2022/01/19 14:23:58;;;;;;;9.90;6.47;;;;;;;;;;4932815;29;20056;-75
2022/01/19 14:26:24;;;;;;;11.77;6.95;;;;;;;;;;4933913;29;20133;-74
2022/01/19 14:29:09;;;;;;;10.63;6.63;;;;;;;;;;4933380;29;20220;-74
2022/01/19 14:31:46;;;;;;;7.93;5.70;;;;;;;;;;4933141;29;20035;-73
2022/01/19 14:34:13;;;;;;;7.25;5.43;;;;;;;;;;4933025;29;20035;-74
2022/01/19 14:36:39;;;;;;;10.07;6.05;;;;;;;;;;4933066;29;20520;-74
2022/01/19 14:39:06;;;;;;;8.38;5.55;;;;;;;;;;4932424;29;20054;-74
2022/01/19 14:41:36;;;;;;;9.48;5.22;;;;;;;;;;4934039;29;20034;-73
2022/01/19 14:44:20;;;;;;;9.43;5.50;;;;;;;;;;4933180;29;20047;-74
2022/01/19 14:47:13;;;;;;;11.63;6.32;;;;;;;;;;4932922;29;20039;-74
2022/01/19 14:49:40;;;;;;;7.22;5.13;;;;;;;;;;4932902;29;20408;-73
2022/01/19 14:52:06;;;;;;;10.80;6.28;;;;;;;;;;4932650;29;20047;-74
2022/01/19 14:54:33;;;;;;;12.40;6.70;;;;;;;;;;4932247;29;20039;-74
2022/01/19 14:56:59;;;;;;;7.22;5.30;;;;;;;;;;4933024;29;20037;-74
2022/01/19 14:59:26;;;;;;;7.20;5.57;;;;;;;;;;4937819;29;20050;-74
2022/01/19 15:01:55;;;;;;;11.25;6.40;;;;;;;;;;4933939;29;20055;-74
2022/01/19 15:04:22;;;;;;;7.93;5.47;;;;;;;;;;4934326;29;20050;-74
2022/01/19 15:06:49;;;;;;;10.27;6.00;;;;;;;;;;4933778;29;20043;-74
2022/01/19 15:09:16;;;;;;;16.95;6.75;;;;;;;;;;4934151;29;20030;-74
2022/01/19 15:11:42;;;;;;;10.10;5.80;;;;;;;;;;4962869;28;20027;-74
2022/01/19 15:14:09;;;;;;;9.05;5.20;;;;;;;;;;4935186;29;20059;-74
2022/01/19 15:16:36;;;;;;;7.15;4.47;;;;;;;;;;4934597;29;20028;-73
2022/01/19 15:19:03;;;;;;;9.20;5.35;;;;;;;;;;4934493;28;20035;-74
2022/01/19 15:21:30;;;;;;;7.82;4.93;;;;;;;;;;4934154;29;20032;-74
2022/01/19 15:23:59;;;;;;;8.20;5.15;;;;;;;;;;4933965;29;20480;-74
2022/01/19 15:26:26;;;;;;;6.88;4.55;;;;;;;;;;4935094;29;20027;-74
2022/01/19 15:28:52;;;;;;;7.95;4.78;;;;;;;;;;4953152;28;20042;-74
2022/01/19 15:31:18;;;;;;;7.65;4.72;;;;;;;;;;4934095;29;20024;-74
2022/01/19 15:33:45;;;;;;;8.80;5.20;;;;;;;;;;4934263;29;20497;-74
2022/01/19 15:36:12;;;;;;;7.10;5.10;;;;;;;;;;4933941;29;20016;-74
2022/01/19 15:38:39;;;;;;;6.15;4.40;;;;;;;;;;4934192;29;20035;-74
2022/01/19 15:41:06;;;;;;;10.63;5.20;;;;;;;;;;4933473;29;20030;-74
2022/01/19 15:43:33;;;;;;;7.90;5.00;;;;;;;;;;4934278;29;20036;-74
2022/01/19 15:46:00;;;;;;;8.23;5.82;;;;;;;;;;4934471;29;20027;-74
2022/01/19 15:48:27;;;;;;;8.20;5.00;;;;;;;;;;4934261;29;20440;-74
2022/01/19 15:50:55;;;;;;;8.65;5.72;;;;;;;;;;4933817;29;20089;-73
2022/01/19 15:53:22;;;;;;;8.30;5.25;;;;;;;;;;4934559;29;20564;-74
2022/01/19 15:55:49;;;;;;;7.35;4.85;;;;;;;;;;4933935;29;20032;-75
2022/01/19 15:58:16;;;;;;;10.38;5.35;;;;;;;;;;4934074;29;20037;-75
2022/01/19 16:00:43;;;;;;;9.32;6.32;;;;;;;;;;4932165;29;20038;-75
2022/01/19 16:03:10;;;;;;;10.40;6.05;;;;;;;;;;4933758;29;20050;-76
2022/01/19 16:05:36;;;;;;;13.27;6.35;;;;;;;;;;4933467;29;20039;-75